Detroit, Oregon
Current Conditions -  °F | °C
As of 3:56 AM on Monday 24 Nov 2014 (Local Time) from KSLE Reporting Station
Overcast Overcast  
Wind Chill: 45°   Ceiling: 3300
Heat Index: 48°   Visibility: 10mi
Dew Point: 45°   Wind: 6mph
Humidity: 89%   Direction: 150°SSE
Pressure: 30.35"   Gusts: NA
Location:  44.73°N, 122.15°W
Report Text: KSLE 241156Z AUTO 15005KT 10SM OVC033 09/07 A3035 RMK AO2 SLP280 70047 T00890072 10100 20078 58001
Loading
Personal Weather Stations






























Interactive Weather Map New forecast layout! Learn more

10-Day Weather Forecast

Advertisements
Track Severe Weather on mobile